sensor_id;sensor_type;location;lat;lon;timestamp;P1;durP1;ratioP1;P2;durP2;ratioP2
36233;SDS011;43467;50.890;5.982;2024-01-30T00:02:21;10.35;;;6.85;;
36233;SDS011;43467;50.890;5.982;2024-01-30T00:04:46;12.95;;;7.78;;
36233;SDS011;43467;50.890;5.982;2024-01-30T00:07:12;11.48;;;6.97;;
36233;SDS011;43467;50.890;5.982;2024-01-30T00:09:38;11.07;;;6.53;;
36233;SDS011;43467;50.890;5.982;2024-01-30T00:12:05;9.93;;;7.68;;
36233;SDS011;43467;50.890;5.982;2024-01-30T00:14:31;9.30;;;6.43;;
36233;SDS011;43467;50.890;5.982;2024-01-30T00:16:56;10.93;;;7.53;;
36233;SDS011;43467;50.890;5.982;2024-01-30T00:19:22;10.18;;;6.93;;
36233;SDS011;43467;50.890;5.982;2024-01-30T00:21:47;13.40;;;7.75;;
36233;SDS011;43467;50.890;5.982;2024-01-30T00:24:12;13.43;;;7.00;;
36233;SDS011;43467;50.890;5.982;2024-01-30T00:26:38;13.82;;;7.75;;
36233;SDS011;43467;50.890;5.982;2024-01-30T00:29:03;11.82;;;7.35;;
36233;SDS011;43467;50.890;5.982;2024-01-30T00:31:28;11.65;;;7.00;;
36233;SDS011;43467;50.890;5.982;2024-01-30T00:33:54;13.43;;;7.07;;
36233;SDS011;43467;50.890;5.982;2024-01-30T00:36:20;14.57;;;7.32;;
36233;SDS011;43467;50.890;5.982;2024-01-30T00:38:45;9.38;;;6.68;;
36233;SDS011;43467;50.890;5.982;2024-01-30T00:41:10;9.40;;;7.47;;
36233;SDS011;43467;50.890;5.982;2024-01-30T00:43:36;13.13;;;7.22;;
36233;SDS011;43467;50.890;5.982;2024-01-30T00:46:02;13.02;;;7.20;;
36233;SDS011;43467;50.890;5.982;2024-01-30T00:48:28;10.93;;;6.85;;
36233;SDS011;43467;50.890;5.982;2024-01-30T00:50:53;10.05;;;6.20;;
36233;SDS011;43467;50.890;5.982;2024-01-30T00:53:19;9.73;;;7.10;;
36233;SDS011;43467;50.890;5.982;2024-01-30T00:55:44;11.27;;;7.38;;
36233;SDS011;43467;50.890;5.982;2024-01-30T00:58:10;10.80;;;7.20;;
36233;SDS011;43467;50.890;5.982;2024-01-30T01:00:35;11.07;;;6.55;;
36233;SDS011;43467;50.890;5.982;2024-01-30T01:03:01;11.38;;;7.30;;
36233;SDS011;43467;50.890;5.982;2024-01-30T01:05:26;11.50;;;7.05;;
36233;SDS011;43467;50.890;5.982;2024-01-30T01:07:52;13.38;;;8.48;;
36233;SDS011;43467;50.890;5.982;2024-01-30T01:10:18;9.43;;;6.78;;
36233;SDS011;43467;50.890;5.982;2024-01-30T01:12:44;10.75;;;6.78;;
36233;SDS011;43467;50.890;5.982;2024-01-30T01:15:10;13.82;;;7.60;;
36233;SDS011;43467;50.890;5.982;2024-01-30T01:17:35;9.57;;;7.45;;
36233;SDS011;43467;50.890;5.982;2024-01-30T01:20:02;11.63;;;6.05;;
36233;SDS011;43467;50.890;5.982;2024-01-30T01:22:28;11.60;;;7.25;;
36233;SDS011;43467;50.890;5.982;2024-01-30T01:24:53;8.73;;;6.38;;
36233;SDS011;43467;50.890;5.982;2024-01-30T01:27:19;8.48;;;6.45;;
36233;SDS011;43467;50.890;5.982;2024-01-30T01:29:44;11.55;;;7.25;;
36233;SDS011;43467;50.890;5.982;2024-01-30T01:32:10;10.73;;;6.93;;
36233;SDS011;43467;50.890;5.982;2024-01-30T01:34:35;10.30;;;6.57;;
36233;SDS011;43467;50.890;5.982;2024-01-30T01:37:01;10.48;;;6.45;;
36233;SDS011;43467;50.890;5.982;2024-01-30T01:39:26;12.95;;;6.95;;
36233;SDS011;43467;50.890;5.982;2024-01-30T01:41:52;9.75;;;6.03;;
36233;SDS011;43467;50.890;5.982;2024-01-30T01:44:20;8.88;;;6.38;;
36233;SDS011;43467;50.890;5.982;2024-01-30T01:46:45;8.52;;;6.20;;
36233;SDS011;43467;50.890;5.982;2024-01-30T01:49:11;8.85;;;6.45;;
36233;SDS011;43467;50.890;5.982;2024-01-30T01:51:37;11.48;;;6.18;;
36233;SDS011;43467;50.890;5.982;2024-01-30T01:54:04;8.80;;;6.30;;
36233;SDS011;43467;50.890;5.982;2024-01-30T01:56:31;8.95;;;6.28;;
36233;SDS011;43467;50.890;5.982;2024-01-30T01:58:59;9.30;;;5.90;;
36233;SDS011;43467;50.890;5.982;2024-01-30T02:01:29;11.07;;;5.55;;
36233;SDS011;43467;50.890;5.982;2024-01-30T02:03:57;8.50;;;5.43;;
36233;SDS011;43467;50.890;5.982;2024-01-30T02:06:23;11.10;;;5.28;;
36233;SDS011;43467;50.890;5.982;2024-01-30T02:08:49;8.95;;;6.10;;
36233;SDS011;43467;50.890;5.982;2024-01-30T02:11:15;10.55;;;6.00;;
36233;SDS011;43467;50.890;5.982;2024-01-30T02:13:41;8.43;;;5.07;;
36233;SDS011;43467;50.890;5.982;2024-01-30T02:16:07;8.50;;;5.55;;
36233;SDS011;43467;50.890;5.982;2024-01-30T02:18:32;7.65;;;5.50;;
36233;SDS011;43467;50.890;5.982;2024-01-30T02:20:58;8.27;;;5.57;;
36233;SDS011;43467;50.890;5.982;2024-01-30T02:23:26;8.77;;;5.50;;
36233;SDS011;43467;50.890;5.982;2024-01-30T02:25:52;8.10;;;5.18;;
36233;SDS011;43467;50.890;5.982;2024-01-30T02:28:18;8.40;;;5.63;;
36233;SDS011;43467;50.890;5.982;2024-01-30T02:30:44;7.43;;;5.03;;
36233;SDS011;43467;50.890;5.982;2024-01-30T02:33:10;8.75;;;5.80;;
36233;SDS011;43467;50.890;5.982;2024-01-30T02:35:36;7.53;;;5.30;;
36233;SDS011;43467;50.890;5.982;2024-01-30T02:38:01;8.20;;;5.18;;
36233;SDS011;43467;50.890;5.982;2024-01-30T02:40:27;9.13;;;5.82;;
36233;SDS011;43467;50.890;5.982;2024-01-30T02:42:53;10.23;;;5.68;;
36233;SDS011;43467;50.890;5.982;2024-01-30T02:45:18;8.00;;;4.93;;
36233;SDS011;43467;50.890;5.982;2024-01-30T02:47:43;7.45;;;4.88;;
36233;SDS011;43467;50.890;5.982;2024-01-30T02:50:09;9.02;;;5.47;;
36233;SDS011;43467;50.890;5.982;2024-01-30T02:52:35;9.82;;;5.28;;
36233;SDS011;43467;50.890;5.982;2024-01-30T02:55:00;8.50;;;4.70;;
36233;SDS011;43467;50.890;5.982;2024-01-30T02:57:26;7.15;;;5.25;;
36233;SDS011;43467;50.890;5.982;2024-01-30T02:59:52;8.13;;;5.30;;
36233;SDS011;43467;50.890;5.982;2024-01-30T03:02:18;8.27;;;4.93;;
36233;SDS011;43467;50.890;5.982;2024-01-30T03:04:43;6.28;;;5.05;;
36233;SDS011;43467;50.890;5.982;2024-01-30T03:07:09;11.13;;;5.22;;
36233;SDS011;43467;50.890;5.982;2024-01-30T03:09:34;7.18;;;5.28;;
36233;SDS011;43467;50.890;5.982;2024-01-30T03:12:01;7.15;;;4.90;;
36233;SDS011;43467;50.890;5.982;2024-01-30T03:14:26;7.28;;;5.43;;
36233;SDS011;43467;50.890;5.982;2024-01-30T03:16:52;8.70;;;5.18;;
36233;SDS011;43467;50.890;5.982;2024-01-30T03:19:17;8.07;;;5.10;;
36233;SDS011;43467;50.890;5.982;2024-01-30T03:21:43;10.65;;;5.15;;
36233;SDS011;43467;50.890;5.982;2024-01-30T03:24:09;6.03;;;4.80;;
36233;SDS011;43467;50.890;5.982;2024-01-30T03:26:34;9.32;;;5.30;;
36233;SDS011;43467;50.890;5.982;2024-01-30T03:29:00;7.95;;;4.85;;
36233;SDS011;43467;50.890;5.982;2024-01-30T03:31:25;7.35;;;4.90;;
36233;SDS011;43467;50.890;5.982;2024-01-30T03:33:51;6.70;;;4.88;;
36233;SDS011;43467;50.890;5.982;2024-01-30T03:36:16;7.22;;;4.88;;
36233;SDS011;43467;50.890;5.982;2024-01-30T03:38:41;6.75;;;4.65;;
36233;SDS011;43467;50.890;5.982;2024-01-30T03:41:07;7.10;;;4.68;;
36233;SDS011;43467;50.890;5.982;2024-01-30T03:43:34;6.35;;;4.93;;
36233;SDS011;43467;50.890;5.982;2024-01-30T03:45:59;8.25;;;5.32;;
36233;SDS011;43467;50.890;5.982;2024-01-30T03:48:26;8.65;;;5.15;;
36233;SDS011;43467;50.890;5.982;2024-01-30T03:50:51;7.45;;;4.95;;
36233;SDS011;43467;50.890;5.982;2024-01-30T03:53:17;8.30;;;5.00;;
36233;SDS011;43467;50.890;5.982;2024-01-30T03:55:42;6.95;;;5.00;;
36233;SDS011;43467;50.890;5.982;2024-01-30T03:58:08;7.63;;;5.10;;
36233;SDS011;43467;50.890;5.982;2024-01-30T04:00:33;7.05;;;4.95;;
36233;SDS011;43467;50.890;5.982;2024-01-30T04:02:59;9.70;;;5.47;;
36233;SDS011;43467;50.890;5.982;2024-01-30T04:05:24;6.47;;;4.25;;
36233;SDS011;43467;50.890;5.982;2024-01-30T04:07:50;10.55;;;5.43;;
36233;SDS011;43467;50.890;5.982;2024-01-30T04:10:16;8.15;;;5.00;;
36233;SDS011;43467;50.890;5.982;2024-01-30T04:12:41;8.48;;;5.30;;
36233;SDS011;43467;50.890;5.982;2024-01-30T04:15:07;7.25;;;4.68;;
36233;SDS011;43467;50.890;5.982;2024-01-30T04:17:33;10.77;;;4.88;;
36233;SDS011;43467;50.890;5.982;2024-01-30T04:19:58;6.00;;;4.65;;
36233;SDS011;43467;50.890;5.982;2024-01-30T04:22:24;7.03;;;4.70;;
36233;SDS011;43467;50.890;5.982;2024-01-30T04:24:49;9.23;;;4.70;;
36233;SDS011;43467;50.890;5.982;2024-01-30T04:27:15;9.25;;;5.28;;
36233;SDS011;43467;50.890;5.982;2024-01-30T04:29:40;6.82;;;4.70;;
36233;SDS011;43467;50.890;5.982;2024-01-30T04:32:05;9.00;;;4.82;;
36233;SDS011;43467;50.890;5.982;2024-01-30T04:34:31;7.20;;;4.88;;
36233;SDS011;43467;50.890;5.982;2024-01-30T04:36:56;7.13;;;4.93;;
36233;SDS011;43467;50.890;5.982;2024-01-30T04:39:22;6.55;;;4.25;;
36233;SDS011;43467;50.890;5.982;2024-01-30T04:41:47;8.80;;;4.90;;
36233;SDS011;43467;50.890;5.982;2024-01-30T04:44:13;7.40;;;4.70;;
36233;SDS011;43467;50.890;5.982;2024-01-30T04:46:39;10.27;;;4.50;;
36233;SDS011;43467;50.890;5.982;2024-01-30T04:49:04;8.93;;;4.28;;
36233;SDS011;43467;50.890;5.982;2024-01-30T04:51:30;7.35;;;4.88;;
36233;SDS011;43467;50.890;5.982;2024-01-30T04:53:55;9.13;;;5.10;;
36233;SDS011;43467;50.890;5.982;2024-01-30T04:56:21;8.05;;;4.85;;
36233;SDS011;43467;50.890;5.982;2024-01-30T04:58:46;7.15;;;4.38;;
36233;SDS011;43467;50.890;5.982;2024-01-30T05:01:18;6.75;;;4.78;;
36233;SDS011;43467;50.890;5.982;2024-01-30T05:03:43;8.35;;;4.50;;
36233;SDS011;43467;50.890;5.982;2024-01-30T05:06:09;7.13;;;4.63;;
36233;SDS011;43467;50.890;5.982;2024-01-30T05:08:34;9.35;;;5.50;;
36233;SDS011;43467;50.890;5.982;2024-01-30T05:11:05;5.78;;;4.43;;
36233;SDS011;43467;50.890;5.982;2024-01-30T05:13:31;5.82;;;4.70;;
36233;SDS011;43467;50.890;5.982;2024-01-30T05:15:57;7.40;;;4.60;;
36233;SDS011;43467;50.890;5.982;2024-01-30T05:18:22;14.07;;;5.55;;
36233;SDS011;43467;50.890;5.982;2024-01-30T05:20:49;9.80;;;4.68;;
36233;SDS011;43467;50.890;5.982;2024-01-30T05:23:15;7.00;;;4.70;;
36233;SDS011;43467;50.890;5.982;2024-01-30T05:25:40;6.75;;;4.70;;
36233;SDS011;43467;50.890;5.982;2024-01-30T05:28:05;8.88;;;5.25;;
36233;SDS011;43467;50.890;5.982;2024-01-30T05:30:31;8.50;;;5.07;;
36233;SDS011;43467;50.890;5.982;2024-01-30T05:32:56;9.85;;;5.22;;
36233;SDS011;43467;50.890;5.982;2024-01-30T05:35:22;6.50;;;4.32;;
36233;SDS011;43467;50.890;5.982;2024-01-30T05:37:48;6.57;;;4.60;;
36233;SDS011;43467;50.890;5.982;2024-01-30T05:40:14;5.70;;;4.20;;
36233;SDS011;43467;50.890;5.982;2024-01-30T05:42:39;8.77;;;4.10;;
36233;SDS011;43467;50.890;5.982;2024-01-30T05:45:05;8.38;;;4.82;;
36233;SDS011;43467;50.890;5.982;2024-01-30T05:47:30;6.90;;;4.07;;
36233;SDS011;43467;50.890;5.982;2024-01-30T05:49:56;8.52;;;5.18;;
36233;SDS011;43467;50.890;5.982;2024-01-30T05:52:21;11.10;;;4.60;;
36233;SDS011;43467;50.890;5.982;2024-01-30T05:54:47;9.98;;;4.90;;
36233;SDS011;43467;50.890;5.982;2024-01-30T05:57:12;6.63;;;4.82;;
36233;SDS011;43467;50.890;5.982;2024-01-30T05:59:38;8.63;;;4.68;;
36233;SDS011;43467;50.890;5.982;2024-01-30T06:02:03;8.35;;;5.45;;
36233;SDS011;43467;50.890;5.982;2024-01-30T06:04:29;7.38;;;4.82;;
36233;SDS011;43467;50.890;5.982;2024-01-30T06:06:54;7.75;;;4.82;;
36233;SDS011;43467;50.890;5.982;2024-01-30T06:09:20;7.43;;;5.13;;
36233;SDS011;43467;50.890;5.982;2024-01-30T06:11:46;9.55;;;5.25;;
36233;SDS011;43467;50.890;5.982;2024-01-30T06:14:11;7.47;;;5.35;;
36233;SDS011;43467;50.890;5.982;2024-01-30T06:16:36;6.60;;;4.72;;
36233;SDS011;43467;50.890;5.982;2024-01-30T06:19:02;8.27;;;5.18;;
36233;SDS011;43467;50.890;5.982;2024-01-30T06:21:27;7.22;;;4.80;;
36233;SDS011;43467;50.890;5.982;2024-01-30T06:23:52;6.55;;;4.78;;
36233;SDS011;43467;50.890;5.982;2024-01-30T06:26:18;8.35;;;5.43;;
36233;SDS011;43467;50.890;5.982;2024-01-30T06:28:43;6.78;;;5.15;;
36233;SDS011;43467;50.890;5.982;2024-01-30T06:31:09;6.80;;;4.93;;
36233;SDS011;43467;50.890;5.982;2024-01-30T06:33:34;10.23;;;5.53;;
36233;SDS011;43467;50.890;5.982;2024-01-30T06:36:00;6.57;;;5.03;;
36233;SDS011;43467;50.890;5.982;2024-01-30T06:38:25;8.13;;;4.88;;
36233;SDS011;43467;50.890;5.982;2024-01-30T06:40:51;10.57;;;5.93;;
36233;SDS011;43467;50.890;5.982;2024-01-30T06:43:16;7.28;;;5.10;;
36233;SDS011;43467;50.890;5.982;2024-01-30T06:45:41;7.05;;;5.30;;
36233;SDS011;43467;50.890;5.982;2024-01-30T06:48:07;9.43;;;5.50;;
36233;SDS011;43467;50.890;5.982;2024-01-30T06:50:33;7.35;;;5.05;;
36233;SDS011;43467;50.890;5.982;2024-01-30T06:52:58;7.90;;;4.97;;
36233;SDS011;43467;50.890;5.982;2024-01-30T06:55:23;7.85;;;5.63;;
36233;SDS011;43467;50.890;5.982;2024-01-30T06:57:49;8.38;;;5.13;;
36233;SDS011;43467;50.890;5.982;2024-01-30T07:00:14;9.93;;;5.57;;
36233;SDS011;43467;50.890;5.982;2024-01-30T07:02:41;8.32;;;4.72;;
36233;SDS011;43467;50.890;5.982;2024-01-30T07:05:06;8.27;;;4.95;;
36233;SDS011;43467;50.890;5.982;2024-01-30T07:07:32;8.57;;;5.28;;
36233;SDS011;43467;50.890;5.982;2024-01-30T07:09:58;9.80;;;5.18;;
36233;SDS011;43467;50.890;5.982;2024-01-30T07:12:23;9.63;;;5.25;;
36233;SDS011;43467;50.890;5.982;2024-01-30T07:14:50;11.57;;;5.43;;
36233;SDS011;43467;50.890;5.982;2024-01-30T07:17:16;11.32;;;5.57;;
36233;SDS011;43467;50.890;5.982;2024-01-30T07:19:42;8.57;;;5.68;;
36233;SDS011;43467;50.890;5.982;2024-01-30T07:22:07;8.07;;;5.47;;
36233;SDS011;43467;50.890;5.982;2024-01-30T07:24:33;8.80;;;5.50;;
36233;SDS011;43467;50.890;5.982;2024-01-30T07:26:58;11.45;;;6.28;;
36233;SDS011;43467;50.890;5.982;2024-01-30T07:29:24;9.85;;;5.75;;
36233;SDS011;43467;50.890;5.982;2024-01-30T07:31:49;9.27;;;5.63;;
36233;SDS011;43467;50.890;5.982;2024-01-30T07:34:15;12.90;;;5.72;;
36233;SDS011;43467;50.890;5.982;2024-01-30T07:36:40;8.40;;;5.68;;
36233;SDS011;43467;50.890;5.982;2024-01-30T07:39:06;10.95;;;6.38;;
36233;SDS011;43467;50.890;5.982;2024-01-30T07:41:31;9.88;;;5.60;;
36233;SDS011;43467;50.890;5.982;2024-01-30T07:43:57;11.30;;;6.45;;
36233;SDS011;43467;50.890;5.982;2024-01-30T07:46:22;8.50;;;5.88;;
36233;SDS011;43467;50.890;5.982;2024-01-30T07:48:48;8.85;;;5.32;;
36233;SDS011;43467;50.890;5.982;2024-01-30T07:51:13;8.60;;;5.72;;
36233;SDS011;43467;50.890;5.982;2024-01-30T07:53:39;9.43;;;5.22;;
36233;SDS011;43467;50.890;5.982;2024-01-30T07:56:05;8.63;;;5.68;;
36233;SDS011;43467;50.890;5.982;2024-01-30T07:58:30;9.52;;;5.90;;
36233;SDS011;43467;50.890;5.982;2024-01-30T08:00:56;8.90;;;6.00;;
36233;SDS011;43467;50.890;5.982;2024-01-30T08:03:23;9.27;;;5.32;;
36233;SDS011;43467;50.890;5.982;2024-01-30T08:05:49;12.68;;;5.93;;
36233;SDS011;43467;50.890;5.982;2024-01-30T08:08:14;11.30;;;5.63;;
36233;SDS011;43467;50.890;5.982;2024-01-30T08:10:40;14.98;;;6.90;;
36233;SDS011;43467;50.890;5.982;2024-01-30T08:13:05;10.25;;;5.72;;
36233;SDS011;43467;50.890;5.982;2024-01-30T08:15:30;10.32;;;6.20;;
36233;SDS011;43467;50.890;5.982;2024-01-30T08:17:55;10.98;;;6.03;;
36233;SDS011;43467;50.890;5.982;2024-01-30T08:20:23;12.55;;;6.30;;
36233;SDS011;43467;50.890;5.982;2024-01-30T08:22:49;11.18;;;5.63;;
36233;SDS011;43467;50.890;5.982;2024-01-30T08:25:14;10.40;;;5.72;;
36233;SDS011;43467;50.890;5.982;2024-01-30T08:27:40;15.98;;;6.10;;
36233;SDS011;43467;50.890;5.982;2024-01-30T08:30:06;11.02;;;6.57;;
36233;SDS011;43467;50.890;5.982;2024-01-30T08:32:32;9.70;;;6.15;;
36233;SDS011;43467;50.890;5.982;2024-01-30T08:34:57;10.80;;;6.28;;
36233;SDS011;43467;50.890;5.982;2024-01-30T08:37:23;8.82;;;6.28;;
36233;SDS011;43467;50.890;5.982;2024-01-30T08:39:48;13.63;;;5.85;;
36233;SDS011;43467;50.890;5.982;2024-01-30T08:42:14;10.73;;;5.88;;
36233;SDS011;43467;50.890;5.982;2024-01-30T08:44:39;12.95;;;6.18;;
36233;SDS011;43467;50.890;5.982;2024-01-30T08:47:05;9.70;;;6.03;;
36233;SDS011;43467;50.890;5.982;2024-01-30T08:49:30;11.00;;;6.20;;
36233;SDS011;43467;50.890;5.982;2024-01-30T08:51:56;8.77;;;5.60;;
36233;SDS011;43467;50.890;5.982;2024-01-30T08:54:22;10.75;;;5.93;;
36233;SDS011;43467;50.890;5.982;2024-01-30T08:56:48;7.78;;;5.22;;
36233;SDS011;43467;50.890;5.982;2024-01-30T08:59:14;13.10;;;6.10;;
36233;SDS011;43467;50.890;5.982;2024-01-30T09:01:40;10.05;;;5.60;;
36233;SDS011;43467;50.890;5.982;2024-01-30T09:04:05;12.80;;;5.80;;
36233;SDS011;43467;50.890;5.982;2024-01-30T09:06:30;9.35;;;5.88;;
36233;SDS011;43467;50.890;5.982;2024-01-30T09:08:56;8.30;;;6.03;;
36233;SDS011;43467;50.890;5.982;2024-01-30T09:11:23;12.07;;;5.97;;
36233;SDS011;43467;50.890;5.982;2024-01-30T09:13:48;9.45;;;5.97;;
36233;SDS011;43467;50.890;5.982;2024-01-30T09:16:14;13.50;;;6.05;;
36233;SDS011;43467;50.890;5.982;2024-01-30T09:18:41;12.48;;;6.40;;
36233;SDS011;43467;50.890;5.982;2024-01-30T09:21:06;9.70;;;5.28;;
36233;SDS011;43467;50.890;5.982;2024-01-30T09:23:31;8.65;;;5.30;;
36233;SDS011;43467;50.890;5.982;2024-01-30T09:25:57;15.30;;;6.35;;
36233;SDS011;43467;50.890;5.982;2024-01-30T09:28:22;8.45;;;5.25;;
36233;SDS011;43467;50.890;5.982;2024-01-30T09:30:48;9.50;;;5.72;;
36233;SDS011;43467;50.890;5.982;2024-01-30T09:33:14;12.20;;;5.53;;
36233;SDS011;43467;50.890;5.982;2024-01-30T09:35:39;12.80;;;5.72;;
36233;SDS011;43467;50.890;5.982;2024-01-30T09:38:04;11.50;;;5.32;;
36233;SDS011;43467;50.890;5.982;2024-01-30T09:40:30;13.27;;;6.35;;
36233;SDS011;43467;50.890;5.982;2024-01-30T09:42:56;13.15;;;5.65;;
36233;SDS011;43467;50.890;5.982;2024-01-30T09:45:24;12.43;;;5.60;;
36233;SDS011;43467;50.890;5.982;2024-01-30T09:47:50;14.98;;;6.18;;
36233;SDS011;43467;50.890;5.982;2024-01-30T09:50:16;7.72;;;5.45;;
36233;SDS011;43467;50.890;5.982;2024-01-30T09:52:45;10.15;;;5.63;;
36233;SDS011;43467;50.890;5.982;2024-01-30T09:55:11;12.20;;;6.00;;
36233;SDS011;43467;50.890;5.982;2024-01-30T09:57:37;10.45;;;5.57;;
36233;SDS011;43467;50.890;5.982;2024-01-30T10:00:03;8.30;;;5.57;;
36233;SDS011;43467;50.890;5.982;2024-01-30T10:02:31;10.32;;;5.88;;
36233;SDS011;43467;50.890;5.982;2024-01-30T10:04:56;9.10;;;5.70;;
36233;SDS011;43467;50.890;5.982;2024-01-30T10:07:22;13.90;;;5.40;;
36233;SDS011;43467;50.890;5.982;2024-01-30T10:09:48;14.40;;;6.15;;
36233;SDS011;43467;50.890;5.982;2024-01-30T10:12:14;12.48;;;6.20;;
36233;SDS011;43467;50.890;5.982;2024-01-30T10:14:40;11.77;;;6.25;;
36233;SDS011;43467;50.890;5.982;2024-01-30T10:17:09;12.93;;;6.05;;
36233;SDS011;43467;50.890;5.982;2024-01-30T10:19:36;10.80;;;6.85;;
36233;SDS011;43467;50.890;5.982;2024-01-30T10:22:03;10.32;;;6.20;;
36233;SDS011;43467;50.890;5.982;2024-01-30T10:24:29;10.60;;;6.72;;
36233;SDS011;43467;50.890;5.982;2024-01-30T10:26:55;17.45;;;6.40;;
36233;SDS011;43467;50.890;5.982;2024-01-30T10:29:21;10.48;;;6.97;;
36233;SDS011;43467;50.890;5.982;2024-01-30T10:31:57;15.02;;;6.55;;
36233;SDS011;43467;50.890;5.982;2024-01-30T10:34:23;9.88;;;6.07;;
36233;SDS011;43467;50.890;5.982;2024-01-30T10:36:50;11.70;;;6.43;;
36233;SDS011;43467;50.890;5.982;2024-01-30T10:39:21;13.73;;;6.13;;
36233;SDS011;43467;50.890;5.982;2024-01-30T10:41:48;11.98;;;6.60;;
36233;SDS011;43467;50.890;5.982;2024-01-30T10:44:20;13.50;;;6.30;;
36233;SDS011;43467;50.890;5.982;2024-01-30T10:46:51;11.85;;;6.13;;
36233;SDS011;43467;50.890;5.982;2024-01-30T10:49:25;11.75;;;6.00;;
36233;SDS011;43467;50.890;5.982;2024-01-30T10:51:51;11.10;;;6.38;;
36233;SDS011;43467;50.890;5.982;2024-01-30T10:54:17;12.45;;;6.53;;
36233;SDS011;43467;50.890;5.982;2024-01-30T10:56:45;17.08;;;6.65;;
36233;SDS011;43467;50.890;5.982;2024-01-30T10:59:11;15.13;;;7.13;;
36233;SDS011;43467;50.890;5.982;2024-01-30T11:01:38;14.57;;;7.03;;
36233;SDS011;43467;50.890;5.982;2024-01-30T11:04:04;17.00;;;7.20;;
36233;SDS011;43467;50.890;5.982;2024-01-30T11:06:29;13.70;;;6.82;;
36233;SDS011;43467;50.890;5.982;2024-01-30T11:09:05;16.45;;;7.40;;
36233;SDS011;43467;50.890;5.982;2024-01-30T11:11:51;15.32;;;6.88;;
36233;SDS011;43467;50.890;5.982;2024-01-30T11:14:24;14.77;;;7.32;;
36233;SDS011;43467;50.890;5.982;2024-01-30T11:16:51;12.18;;;7.35;;
36233;SDS011;43467;50.890;5.982;2024-01-30T11:19:22;13.55;;;7.18;;
36233;SDS011;43467;50.890;5.982;2024-01-30T11:21:50;12.27;;;6.55;;
36233;SDS011;43467;50.890;5.982;2024-01-30T11:24:19;13.30;;;8.07;;
36233;SDS011;43467;50.890;5.982;2024-01-30T11:26:47;11.73;;;6.88;;
36233;SDS011;43467;50.890;5.982;2024-01-30T11:29:14;18.20;;;8.10;;
36233;SDS011;43467;50.890;5.982;2024-01-30T11:31:40;12.15;;;7.60;;
36233;SDS011;43467;50.890;5.982;2024-01-30T11:34:16;13.07;;;6.97;;
36233;SDS011;43467;50.890;5.982;2024-01-30T11:36:42;14.25;;;7.38;;
36233;SDS011;43467;50.890;5.982;2024-01-30T11:39:11;16.15;;;7.15;;
36233;SDS011;43467;50.890;5.982;2024-01-30T11:41:37;12.15;;;7.90;;
36233;SDS011;43467;50.890;5.982;2024-01-30T11:44:04;14.13;;;7.75;;
36233;SDS011;43467;50.890;5.982;2024-01-30T11:46:30;14.93;;;7.50;;
36233;SDS011;43467;50.890;5.982;2024-01-30T11:48:56;15.77;;;8.00;;
36233;SDS011;43467;50.890;5.982;2024-01-30T11:51:22;15.00;;;7.85;;
36233;SDS011;43467;50.890;5.982;2024-01-30T11:53:50;15.43;;;7.70;;
36233;SDS011;43467;50.890;5.982;2024-01-30T11:56:16;13.70;;;7.55;;
36233;SDS011;43467;50.890;5.982;2024-01-30T11:58:42;11.20;;;7.38;;
36233;SDS011;43467;50.890;5.982;2024-01-30T12:01:09;17.10;;;8.93;;
36233;SDS011;43467;50.890;5.982;2024-01-30T12:03:35;16.85;;;7.80;;
36233;SDS011;43467;50.890;5.982;2024-01-30T12:06:00;12.82;;;7.70;;
36233;SDS011;43467;50.890;5.982;2024-01-30T12:08:28;15.10;;;7.65;;
36233;SDS011;43467;50.890;5.982;2024-01-30T12:10:56;13.43;;;7.40;;
36233;SDS011;43467;50.890;5.982;2024-01-30T12:13:31;14.63;;;8.85;;
36233;SDS011;43467;50.890;5.982;2024-01-30T12:15:58;17.70;;;7.50;;
36233;SDS011;43467;50.890;5.982;2024-01-30T12:18:23;16.92;;;8.50;;
36233;SDS011;43467;50.890;5.982;2024-01-30T12:21:01;16.27;;;8.70;;
36233;SDS011;43467;50.890;5.982;2024-01-30T12:23:27;16.55;;;8.35;;
36233;SDS011;43467;50.890;5.982;2024-01-30T12:25:53;17.25;;;9.38;;
36233;SDS011;43467;50.890;5.982;2024-01-30T12:28:19;15.32;;;8.35;;
36233;SDS011;43467;50.890;5.982;2024-01-30T12:30:45;15.73;;;8.05;;
36233;SDS011;43467;50.890;5.982;2024-01-30T12:33:18;17.42;;;8.40;;
36233;SDS011;43467;50.890;5.982;2024-01-30T12:35:47;16.05;;;8.13;;
36233;SDS011;43467;50.890;5.982;2024-01-30T12:38:15;18.70;;;9.30;;
36233;SDS011;43467;50.890;5.982;2024-01-30T12:40:40;17.63;;;8.75;;
36233;SDS011;43467;50.890;5.982;2024-01-30T12:43:06;17.25;;;8.88;;
36233;SDS011;43467;50.890;5.982;2024-01-30T12:45:31;15.13;;;8.98;;
36233;SDS011;43467;50.890;5.982;2024-01-30T12:47:57;15.88;;;8.27;;
36233;SDS011;43467;50.890;5.982;2024-01-30T12:50:23;17.42;;;8.43;;
36233;SDS011;43467;50.890;5.982;2024-01-30T12:52:48;16.75;;;8.38;;
36233;SDS011;43467;50.890;5.982;2024-01-30T12:55:14;15.73;;;8.20;;
36233;SDS011;43467;50.890;5.982;2024-01-30T12:57:40;17.33;;;7.97;;
36233;SDS011;43467;50.890;5.982;2024-01-30T13:00:06;16.58;;;8.13;;
36233;SDS011;43467;50.890;5.982;2024-01-30T13:02:35;13.88;;;8.20;;
36233;SDS011;43467;50.890;5.982;2024-01-30T13:05:04;16.65;;;8.68;;
36233;SDS011;43467;50.890;5.982;2024-01-30T13:07:30;14.15;;;8.15;;
36233;SDS011;43467;50.890;5.982;2024-01-30T13:09:56;20.05;;;8.95;;
36233;SDS011;43467;50.890;5.982;2024-01-30T13:12:27;14.10;;;8.35;;
36233;SDS011;43467;50.890;5.982;2024-01-30T13:14:53;16.42;;;9.45;;
36233;SDS011;43467;50.890;5.982;2024-01-30T13:17:18;13.90;;;8.00;;
36233;SDS011;43467;50.890;5.982;2024-01-30T13:19:44;17.80;;;8.48;;
36233;SDS011;43467;50.890;5.982;2024-01-30T13:22:09;16.20;;;8.43;;
36233;SDS011;43467;50.890;5.982;2024-01-30T13:24:35;17.27;;;8.68;;
36233;SDS011;43467;50.890;5.982;2024-01-30T13:27:00;16.60;;;8.30;;
36233;SDS011;43467;50.890;5.982;2024-01-30T13:29:25;24.33;;;9.20;;
36233;SDS011;43467;50.890;5.982;2024-01-30T13:31:51;15.27;;;8.88;;
36233;SDS011;43467;50.890;5.982;2024-01-30T13:34:16;19.27;;;9.25;;
36233;SDS011;43467;50.890;5.982;2024-01-30T13:36:42;25.98;;;10.27;;
36233;SDS011;43467;50.890;5.982;2024-01-30T13:39:08;26.95;;;8.77;;
36233;SDS011;43467;50.890;5.982;2024-01-30T13:41:36;17.85;;;8.95;;
36233;SDS011;43467;50.890;5.982;2024-01-30T13:44:02;23.08;;;10.18;;
36233;SDS011;43467;50.890;5.982;2024-01-30T13:46:28;19.80;;;9.32;;
36233;SDS011;43467;50.890;5.982;2024-01-30T13:48:54;18.20;;;9.95;;
36233;SDS011;43467;50.890;5.982;2024-01-30T13:51:20;18.30;;;10.00;;
36233;SDS011;43467;50.890;5.982;2024-01-30T13:53:45;21.80;;;10.57;;
36233;SDS011;43467;50.890;5.982;2024-01-30T13:56:10;16.83;;;9.45;;
36233;SDS011;43467;50.890;5.982;2024-01-30T13:58:36;21.83;;;10.77;;
36233;SDS011;43467;50.890;5.982;2024-01-30T14:01:01;20.48;;;11.65;;
36233;SDS011;43467;50.890;5.982;2024-01-30T14:03:27;28.38;;;15.23;;
36233;SDS011;43467;50.890;5.982;2024-01-30T14:05:53;18.88;;;11.52;;
36233;SDS011;43467;50.890;5.982;2024-01-30T14:08:18;20.80;;;12.95;;
36233;SDS011;43467;50.890;5.982;2024-01-30T14:10:46;19.20;;;10.25;;
36233;SDS011;43467;50.890;5.982;2024-01-30T14:13:12;18.55;;;10.77;;
36233;SDS011;43467;50.890;5.982;2024-01-30T14:15:37;16.60;;;9.52;;
36233;SDS011;43467;50.890;5.982;2024-01-30T14:18:03;16.50;;;10.18;;
36233;SDS011;43467;50.890;5.982;2024-01-30T14:20:29;17.98;;;9.10;;
36233;SDS011;43467;50.890;5.982;2024-01-30T14:22:55;16.13;;;9.05;;
36233;SDS011;43467;50.890;5.982;2024-01-30T14:25:20;14.65;;;8.25;;
36233;SDS011;43467;50.890;5.982;2024-01-30T14:27:46;18.20;;;8.40;;
36233;SDS011;43467;50.890;5.982;2024-01-30T14:30:11;14.40;;;7.88;;
36233;SDS011;43467;50.890;5.982;2024-01-30T14:32:37;15.60;;;7.93;;
36233;SDS011;43467;50.890;5.982;2024-01-30T14:35:04;23.92;;;8.32;;